createdAt,value
2023-01-29T00:00:35.763Z,93.72
2023-01-29T00:03:06.263Z,93.66
2023-01-29T00:05:37.995Z,93.29
2023-01-29T00:08:08.432Z,93.36
2023-01-29T00:10:38.291Z,93.54
2023-01-29T00:13:10.734Z,93.61
2023-01-29T00:15:41.340Z,93.27
2023-01-29T00:18:11.406Z,93.06
2023-01-29T00:20:41.551Z,93.17
2023-01-29T00:23:11.609Z,93.63
2023-01-29T00:25:43.095Z,93.76
2023-01-29T00:28:15.821Z,93.95
2023-01-29T00:30:46.996Z,94.02
2023-01-29T00:33:16.831Z,94.05
2023-01-29T00:35:47.179Z,93.44
2023-01-29T00:38:17.682Z,93.67
2023-01-29T00:41:00.138Z,94.19
2023-01-29T00:43:45.283Z,93.15
2023-01-29T00:46:15.802Z,93.68
2023-01-29T00:48:45.888Z,93.17
2023-01-29T00:51:16.214Z,93.54
2023-01-29T00:53:46.072Z,93.05
2023-01-29T00:56:16.326Z,92.94
2023-01-29T00:58:48.857Z,92.77
2023-01-29T01:01:38.958Z,92.32
2023-01-29T01:04:06.429Z,91.47
2023-01-29T01:06:36.491Z,92.09
2023-01-29T01:09:19.461Z,92.17
2023-01-29T01:11:49.844Z,92.54
2023-01-29T01:14:24.260Z,92.09
2023-01-29T01:16:54.343Z,92.20
2023-01-29T01:19:24.633Z,92.16
2023-01-29T01:21:54.487Z,92.19
2023-01-29T01:24:25.164Z,91.76
2023-01-29T01:26:55.130Z,91.69
2023-01-29T01:29:27.835Z,91.68
2023-01-29T01:31:58.020Z,91.90
2023-01-29T01:34:28.025Z,92.07
2023-01-29T01:36:59.279Z,92.08
2023-01-29T01:39:29.186Z,91.99
2023-01-29T01:41:59.759Z,92.41
2023-01-29T01:45:04.259Z,91.76
2023-01-29T01:47:41.080Z,91.85
2023-01-29T01:50:18.195Z,91.63
2023-01-29T01:52:53.906Z,91.29
2023-01-29T01:55:29.944Z,91.32
2023-01-29T01:58:07.411Z,90.83
2023-01-29T02:00:42.175Z,90.82
2023-01-29T02:03:28.107Z,90.59
2023-01-29T02:06:14.268Z,90.63
2023-01-29T02:09:08.734Z,90.61
2023-01-29T02:11:39.819Z,90.65
2023-01-29T02:14:10.200Z,90.64
2023-01-29T02:16:42.801Z,91.01
2023-01-29T02:19:24.772Z,90.96
2023-01-29T02:22:17.285Z,91.05
2023-01-29T02:25:10.170Z,90.86
2023-01-29T02:28:18.849Z,90.74
2023-01-29T02:30:58.415Z,91.01
2023-01-29T02:33:41.738Z,91.20
2023-01-29T02:36:23.432Z,90.67
2023-01-29T02:39:04.540Z,90.85
2023-01-29T02:41:41.835Z,90.95
2023-01-29T02:44:24.767Z,91.17
2023-01-29T02:47:05.565Z,91.10
2023-01-29T02:49:41.857Z,91.06
2023-01-29T02:52:22.248Z,90.66
2023-01-29T02:55:00.162Z,91.26
2023-01-29T02:57:35.558Z,91.45
2023-01-29T03:00:15.628Z,90.89
2023-01-29T03:02:51.850Z,91.20
2023-01-29T03:05:30.259Z,90.78
2023-01-29T03:08:10.364Z,90.47
2023-01-29T03:10:46.929Z,90.56
2023-01-29T03:13:23.948Z,90.06
2023-01-29T03:16:05.947Z,90.57
2023-01-29T03:18:51.005Z,90.24
2023-01-29T03:21:40.815Z,90.35
2023-01-29T03:24:32.169Z,90.08
2023-01-29T03:27:20.899Z,89.68
2023-01-29T03:30:09.241Z,89.55
2023-01-29T03:32:57.216Z,89.47
2023-01-29T03:35:37.569Z,89.56
2023-01-29T03:38:13.275Z,89.38
2023-01-29T03:40:51.875Z,88.91
2023-01-29T03:43:35.501Z,88.56
2023-01-29T03:46:18.824Z,88.27
2023-01-29T03:49:02.739Z,88.07
2023-01-29T03:51:39.461Z,88.08
2023-01-29T03:54:21.421Z,88.65
2023-01-29T03:57:02.951Z,88.50
2023-01-29T03:59:48.852Z,87.38
2023-01-29T04:02:55.081Z,87.45
2023-01-29T04:05:34.555Z,87.74
2023-01-29T04:08:25.015Z,87.95
2023-01-29T04:11:01.798Z,88.08
2023-01-29T04:13:36.383Z,88.12
2023-01-29T04:16:13.405Z,87.88
2023-01-29T04:19:09.539Z,87.53
2023-01-29T04:21:52.809Z,88.11
2023-01-29T04:24:22.743Z,88.37
2023-01-29T04:27:08.013Z,87.97
2023-01-29T04:30:00.824Z,87.84
2023-01-29T04:32:48.888Z,87.87
2023-01-29T04:35:33.254Z,87.98
2023-01-29T04:38:31.145Z,87.56
2023-01-29T04:41:12.543Z,87.54
2023-01-29T04:43:55.929Z,87.20
2023-01-29T04:46:36.741Z,87.29
2023-01-29T04:49:20.395Z,87.49
2023-01-29T04:52:01.818Z,87.39
2023-01-29T04:54:50.309Z,87.77
2023-01-29T04:57:27.622Z,88.17
2023-01-29T05:00:07.364Z,88.27
2023-01-29T05:02:42.049Z,87.95
2023-01-29T05:05:16.712Z,87.50
2023-01-29T05:07:48.582Z,87.38
2023-01-29T05:10:25.995Z,87.29
2023-01-29T05:13:02.975Z,87.20
2023-01-29T05:15:40.258Z,87.23
2023-01-29T05:18:11.618Z,87.36
2023-01-29T05:20:46.281Z,87.38
2023-01-29T05:23:19.807Z,87.23
2023-01-29T05:25:54.376Z,86.99
2023-01-29T05:28:21.648Z,86.79
2023-01-29T05:30:54.212Z,86.78
2023-01-29T05:33:26.868Z,86.63
2023-01-29T05:35:57.659Z,86.46
2023-01-29T05:38:28.150Z,86.77
2023-01-29T05:41:01.930Z,86.72
2023-01-29T05:43:32.056Z,86.47
2023-01-29T05:46:04.198Z,86.77
2023-01-29T05:48:34.094Z,85.85
2023-01-29T05:51:05.580Z,85.82
2023-01-29T05:53:37.307Z,85.54
2023-01-29T05:56:10.636Z,86.04
2023-01-29T05:58:41.373Z,85.89
2023-01-29T06:01:13.134Z,85.90
2023-01-29T06:03:44.148Z,85.95
2023-01-29T06:06:14.997Z,86.20
2023-01-29T06:08:45.063Z,86.57
2023-01-29T06:11:18.526Z,86.68
2023-01-29T06:13:49.268Z,86.38
2023-01-29T06:16:19.642Z,86.27
2023-01-29T06:18:49.481Z,85.87
2023-01-29T06:21:20.217Z,85.62
2023-01-29T06:23:50.958Z,85.88
2023-01-29T06:26:23.763Z,85.96
2023-01-29T06:28:54.130Z,86.09
2023-01-29T06:31:37.976Z,85.77
2023-01-29T06:34:08.873Z,85.94
2023-01-29T06:36:39.211Z,85.63
2023-01-29T06:39:09.250Z,85.62
2023-01-29T06:41:42.314Z,84.71
2023-01-29T06:44:12.180Z,83.54
2023-01-29T06:46:42.065Z,83.06
2023-01-29T06:49:12.443Z,82.31
2023-01-29T06:51:42.662Z,81.73
2023-01-29T06:54:13.448Z,81.00
2023-01-29T06:56:45.924Z,80.74
2023-01-29T06:59:16.798Z,81.32
2023-01-29T07:01:47.052Z,81.57
2023-01-29T07:04:17.917Z,82.36
2023-01-29T07:06:48.119Z,83.70
2023-01-29T07:09:18.593Z,84.54
2023-01-29T07:11:51.174Z,85.16
2023-01-29T07:14:21.662Z,85.58
2023-01-29T07:16:51.784Z,86.44
2023-01-29T07:19:22.157Z,86.07
2023-01-29T07:21:52.190Z,85.23
2023-01-29T07:24:22.625Z,84.93
2023-01-29T07:26:55.227Z,85.29
2023-01-29T07:29:25.746Z,84.64
2023-01-29T07:31:55.716Z,84.82
2023-01-29T07:34:25.699Z,84.22
2023-01-29T07:36:57.272Z,82.15
2023-01-29T07:39:27.510Z,82.47
2023-01-29T07:42:00.472Z,82.65
2023-01-29T07:44:31.658Z,81.64
2023-01-29T07:47:01.979Z,82.40
2023-01-29T07:49:31.820Z,83.30
2023-01-29T07:52:02.247Z,82.63
2023-01-29T07:54:32.104Z,81.72
2023-01-29T07:57:04.626Z,82.40
2023-01-29T07:59:34.723Z,83.04
2023-01-29T08:02:04.638Z,82.42
2023-01-29T08:04:34.452Z,82.42
2023-01-29T08:07:04.857Z,81.79
2023-01-29T08:09:34.997Z,82.16
2023-01-29T08:12:07.880Z,83.04
2023-01-29T08:14:37.667Z,82.95
2023-01-29T08:17:07.825Z,83.24
2023-01-29T08:19:37.954Z,82.27
2023-01-29T08:22:08.500Z,81.90
2023-01-29T08:24:53.444Z,81.75
2023-01-29T08:27:26.937Z,83.09
2023-01-29T08:29:57.393Z,81.81
2023-01-29T08:32:27.264Z,82.50
2023-01-29T08:34:57.477Z,80.80
2023-01-29T08:37:27.378Z,79.02
2023-01-29T08:39:57.304Z,78.00
2023-01-29T08:42:29.937Z,76.17
2023-01-29T08:44:59.809Z,75.74
2023-01-29T08:47:30.082Z,76.00
2023-01-29T08:49:59.899Z,74.87
2023-01-29T08:52:29.952Z,74.87
2023-01-29T08:55:00.121Z,75.84
2023-01-29T08:57:32.555Z,75.64
2023-01-29T09:00:04.604Z,75.93
2023-01-29T09:02:34.931Z,75.51
2023-01-29T09:05:05.185Z,76.43
2023-01-29T09:07:35.285Z,76.09
2023-01-29T09:10:06.134Z,76.71
2023-01-29T09:12:38.525Z,77.20
2023-01-29T09:15:10.128Z,77.06
2023-01-29T09:17:41.031Z,77.11
2023-01-29T09:20:13.344Z,77.23
2023-01-29T09:22:43.169Z,77.54
2023-01-29T09:25:13.491Z,77.14
2023-01-29T09:27:45.931Z,76.63
2023-01-29T09:30:17.433Z,76.49
2023-01-29T09:32:53.506Z,76.39
2023-01-29T09:35:24.483Z,76.59
2023-01-29T09:37:55.342Z,76.71
2023-01-29T09:40:29.399Z,76.70
2023-01-29T09:43:09.277Z,77.29
2023-01-29T09:45:47.664Z,78.19
2023-01-29T09:48:18.139Z,77.57
2023-01-29T09:50:55.163Z,77.58
2023-01-29T09:53:34.018Z,77.42
2023-01-29T09:56:09.016Z,77.26
2023-01-29T09:58:45.747Z,76.34
2023-01-29T10:01:24.051Z,76.36
2023-01-29T10:04:18.876Z,76.65
2023-01-29T10:07:05.574Z,76.67
2023-01-29T10:10:05.437Z,76.48
2023-01-29T10:13:05.715Z,75.66
2023-01-29T10:15:52.085Z,75.37
2023-01-29T10:18:46.871Z,75.51
2023-01-29T10:21:39.254Z,76.30
2023-01-29T10:24:25.290Z,76.19
2023-01-29T10:26:55.559Z,76.94
2023-01-29T10:29:27.047Z,76.67
2023-01-29T10:32:06.091Z,75.81
2023-01-29T10:34:45.028Z,76.05
2023-01-29T10:37:21.590Z,76.17
2023-01-29T10:39:51.949Z,76.68
2023-01-29T10:42:33.344Z,76.88
2023-01-29T10:45:19.573Z,76.81
2023-01-29T10:48:33.946Z,76.43
2023-01-29T10:51:18.444Z,76.71
2023-01-29T10:54:06.382Z,76.76
2023-01-29T10:56:50.129Z,76.98
2023-01-29T10:59:39.539Z,76.26
2023-01-29T11:02:19.681Z,75.75
2023-01-29T11:04:52.242Z,76.31
2023-01-29T11:07:27.806Z,75.88
2023-01-29T11:10:05.753Z,75.49
2023-01-29T11:12:38.343Z,75.18
2023-01-29T11:15:18.993Z,75.52
2023-01-29T11:18:05.610Z,74.30
2023-01-29T11:20:38.759Z,74.62
2023-01-29T11:23:09.145Z,74.25
2023-01-29T11:25:39.386Z,74.61
2023-01-29T11:28:10.031Z,74.52
2023-01-29T11:30:42.625Z,74.61
2023-01-29T11:33:21.924Z,74.30
2023-01-29T11:35:55.767Z,75.33
2023-01-29T11:38:28.525Z,74.74
2023-01-29T11:41:10.299Z,74.70
2023-01-29T11:43:40.208Z,76.50
2023-01-29T11:46:17.798Z,78.82
2023-01-29T11:48:59.142Z,74.08
2023-01-29T11:51:44.090Z,74.92
2023-01-29T11:54:22.576Z,74.94
2023-01-29T11:56:52.876Z,76.27
2023-01-29T11:59:39.423Z,77.64
2023-01-29T12:02:23.913Z,77.52
2023-01-29T12:04:54.312Z,78.25
2023-01-29T12:07:27.605Z,77.77
2023-01-29T12:09:59.790Z,77.35
2023-01-29T12:12:38.111Z,76.99
2023-01-29T12:15:29.423Z,77.82
2023-01-29T12:18:08.693Z,76.91
2023-01-29T12:20:44.313Z,76.55
2023-01-29T12:23:28.936Z,76.10
2023-01-29T12:26:08.113Z,75.41
2023-01-29T12:28:52.141Z,75.90
2023-01-29T12:31:32.513Z,75.95
2023-01-29T12:34:16.342Z,76.18
2023-01-29T12:36:55.519Z,75.94
2023-01-29T12:39:28.371Z,76.68
2023-01-29T12:42:06.376Z,76.24
2023-01-29T12:44:42.680Z,76.25
2023-01-29T12:47:22.151Z,76.26
2023-01-29T12:49:59.363Z,76.12
2023-01-29T12:52:42.597Z,75.58
2023-01-29T12:55:23.301Z,75.70
2023-01-29T12:57:59.324Z,75.19
2023-01-29T13:00:33.738Z,74.75
2023-01-29T13:03:12.266Z,74.85
2023-01-29T13:05:49.750Z,74.26
2023-01-29T13:08:25.181Z,73.73
2023-01-29T13:11:00.976Z,74.14
2023-01-29T13:13:38.194Z,74.37
2023-01-29T13:16:15.885Z,74.58
2023-01-29T13:18:50.619Z,74.74
2023-01-29T13:21:25.618Z,74.46
2023-01-29T13:24:00.204Z,75.04
2023-01-29T13:26:34.651Z,74.72
2023-01-29T13:29:06.138Z,75.31
2023-01-29T13:31:41.346Z,74.87
2023-01-29T13:34:18.124Z,74.10
2023-01-29T13:36:51.971Z,74.45
2023-01-29T13:39:31.568Z,74.73
2023-01-29T13:42:17.554Z,74.97
2023-01-29T13:44:53.836Z,74.98
2023-01-29T13:47:29.137Z,74.72
2023-01-29T13:50:06.671Z,75.07
2023-01-29T13:52:43.920Z,74.27
2023-01-29T13:55:31.433Z,74.81
2023-01-29T13:58:04.732Z,74.91
2023-01-29T14:01:02.208Z,75.20
2023-01-29T14:04:05.518Z,74.63
2023-01-29T14:06:46.487Z,74.76
2023-01-29T14:09:34.911Z,74.60
2023-01-29T14:12:08.681Z,74.15
2023-01-29T14:15:08.447Z,74.96
2023-01-29T14:17:40.408Z,74.10
2023-01-29T14:20:25.721Z,74.56
2023-01-29T14:23:04.271Z,74.44
2023-01-29T14:25:37.220Z,74.68
2023-01-29T14:28:21.561Z,75.08
2023-01-29T14:30:55.855Z,74.79
2023-01-29T14:33:36.982Z,75.14
2023-01-29T14:36:10.810Z,76.12
2023-01-29T14:38:43.348Z,76.11
2023-01-29T14:41:28.173Z,76.17
2023-01-29T14:44:27.945Z,75.55
2023-01-29T14:47:00.880Z,75.57
2023-01-29T14:49:52.485Z,75.37
2023-01-29T14:52:27.524Z,76.09
2023-01-29T14:55:03.799Z,75.37
2023-01-29T14:57:34.867Z,75.79
2023-01-29T15:00:09.992Z,75.51
2023-01-29T15:02:47.258Z,75.38
2023-01-29T15:05:23.976Z,75.64
2023-01-29T15:08:01.009Z,75.88
2023-01-29T15:10:42.721Z,76.01
2023-01-29T15:13:24.469Z,75.81
2023-01-29T15:16:00.635Z,76.40
2023-01-29T15:18:40.429Z,76.33
2023-01-29T15:21:15.454Z,76.74
2023-01-29T15:23:47.906Z,77.10
2023-01-29T15:26:26.753Z,76.70
2023-01-29T15:29:04.304Z,77.17
2023-01-29T15:31:35.766Z,77.30
2023-01-29T15:34:11.793Z,77.23
2023-01-29T15:36:41.895Z,76.93
2023-01-29T15:39:19.485Z,77.67
2023-01-29T15:41:50.854Z,76.92
2023-01-29T15:44:24.402Z,76.69
2023-01-29T15:46:59.477Z,77.20
2023-01-29T15:49:37.071Z,77.28
2023-01-29T15:52:11.155Z,76.74
2023-01-29T15:54:41.983Z,76.77
2023-01-29T15:57:24.900Z,77.27
2023-01-29T16:00:00.813Z,77.65
2023-01-29T16:02:40.232Z,78.01
2023-01-29T16:05:18.287Z,78.11
2023-01-29T16:07:49.664Z,77.64
2023-01-29T16:10:23.348Z,77.91
2023-01-29T16:12:55.337Z,77.93
2023-01-29T16:15:35.024Z,77.88
2023-01-29T16:18:19.661Z,78.31
2023-01-29T16:20:56.743Z,78.29
2023-01-29T16:23:31.116Z,79.27
2023-01-29T16:26:09.969Z,78.86
2023-01-29T16:28:44.768Z,79.25
2023-01-29T16:31:23.567Z,79.17
2023-01-29T16:33:53.957Z,79.31
2023-01-29T16:36:29.962Z,79.12
2023-01-29T16:39:05.406Z,80.05
2023-01-29T16:41:38.263Z,79.88
2023-01-29T16:44:35.881Z,79.67
2023-01-29T16:47:15.491Z,79.40
2023-01-29T16:49:56.839Z,79.60
2023-01-29T16:52:32.097Z,80.05
2023-01-29T16:55:04.991Z,79.87
2023-01-29T16:57:36.625Z,79.27
2023-01-29T17:00:10.906Z,78.70
2023-01-29T17:02:42.747Z,78.75
2023-01-29T17:05:23.627Z,79.11
2023-01-29T17:08:00.772Z,79.31
2023-01-29T17:10:33.431Z,79.20
2023-01-29T17:13:08.283Z,79.25
2023-01-29T17:15:47.623Z,78.96
2023-01-29T17:18:22.186Z,78.44
2023-01-29T17:20:53.263Z,78.80
2023-01-29T17:23:25.903Z,79.08
2023-01-29T17:25:56.463Z,79.14
2023-01-29T17:28:26.560Z,78.73
2023-01-29T17:31:06.250Z,79.22
2023-01-29T17:33:37.649Z,78.69
2023-01-29T17:36:08.231Z,78.73
2023-01-29T17:38:41.056Z,78.97
2023-01-29T17:41:18.782Z,78.43
2023-01-29T17:43:48.692Z,78.82
2023-01-29T17:46:21.216Z,78.97
2023-01-29T17:48:52.471Z,78.88
2023-01-29T17:51:24.886Z,78.85
2023-01-29T17:53:57.546Z,78.86
2023-01-29T17:56:31.138Z,79.00
2023-01-29T17:59:02.162Z,79.32
2023-01-29T18:01:32.540Z,78.72
2023-01-29T18:04:02.505Z,78.64
2023-01-29T18:06:32.951Z,78.85
2023-01-29T18:09:06.432Z,79.09
2023-01-29T18:11:37.302Z,79.44
2023-01-29T18:14:14.504Z,78.56
2023-01-29T18:16:46.920Z,79.10
2023-01-29T18:19:22.649Z,79.22
2023-01-29T18:21:54.278Z,78.96
2023-01-29T18:24:26.902Z,78.87
2023-01-29T18:26:57.604Z,78.92
2023-01-29T18:29:30.124Z,78.70
2023-01-29T18:32:00.209Z,79.07
2023-01-29T18:34:30.164Z,78.98
2023-01-29T18:37:00.341Z,79.42
2023-01-29T18:39:32.826Z,79.59
2023-01-29T18:42:03.356Z,79.24
2023-01-29T18:44:33.199Z,78.72
2023-01-29T18:47:05.650Z,79.27
2023-01-29T18:49:38.832Z,79.22
2023-01-29T18:52:09.070Z,78.85
2023-01-29T18:54:41.542Z,78.86
2023-01-29T18:57:13.646Z,78.97
2023-01-29T18:59:45.153Z,79.48
2023-01-29T19:02:19.590Z,79.51
2023-01-29T19:04:49.721Z,79.54
2023-01-29T19:07:19.846Z,79.90
2023-01-29T19:09:53.098Z,80.07
2023-01-29T19:12:24.003Z,80.25
2023-01-29T19:14:53.903Z,80.69
2023-01-29T19:17:23.837Z,80.58
2023-01-29T19:19:53.714Z,81.21
2023-01-29T19:22:23.629Z,81.36
2023-01-29T19:24:56.104Z,81.58
2023-01-29T19:27:26.067Z,81.76
2023-01-29T19:29:56.206Z,81.57
2023-01-29T19:32:26.006Z,81.92
2023-01-29T19:34:56.253Z,82.22
2023-01-29T19:37:26.449Z,82.36
2023-01-29T19:39:59.152Z,82.85
2023-01-29T19:42:29.048Z,82.64
2023-01-29T19:44:59.614Z,82.62
2023-01-29T19:47:29.400Z,82.96
2023-01-29T19:49:59.336Z,82.95
2023-01-29T19:52:50.881Z,83.12
2023-01-29T19:55:24.086Z,82.84
2023-01-29T19:57:57.640Z,83.10
2023-01-29T20:00:27.636Z,83.52
2023-01-29T20:02:57.633Z,83.65
2023-01-29T20:05:27.623Z,83.70
2023-01-29T20:07:57.756Z,83.95
2023-01-29T20:10:30.221Z,83.82
2023-01-29T20:12:59.980Z,84.07
2023-01-29T20:15:29.894Z,83.60
2023-01-29T20:17:59.710Z,83.69
2023-01-29T20:20:31.110Z,83.84
2023-01-29T20:23:03.063Z,84.19
2023-01-29T20:25:35.851Z,84.26
2023-01-29T20:28:07.939Z,84.42
2023-01-29T20:30:38.591Z,84.38
2023-01-29T20:33:09.498Z,84.47
2023-01-29T20:35:40.447Z,84.34
2023-01-29T20:38:10.415Z,84.88
2023-01-29T20:40:42.902Z,85.05
2023-01-29T20:43:12.680Z,85.10
2023-01-29T20:45:42.902Z,85.17
2023-01-29T20:48:12.762Z,85.16
2023-01-29T20:50:43.227Z,85.51
2023-01-29T20:53:13.789Z,85.29
2023-01-29T20:55:48.096Z,85.39
2023-01-29T20:58:17.993Z,85.64
2023-01-29T21:00:48.563Z,85.45
2023-01-29T21:03:18.383Z,85.33
2023-01-29T21:05:48.323Z,85.13
2023-01-29T21:08:18.542Z,85.25
2023-01-29T21:10:52.032Z,85.43
2023-01-29T21:13:22.466Z,85.73
2023-01-29T21:15:52.893Z,85.54
2023-01-29T21:18:23.218Z,85.82
2023-01-29T21:20:53.140Z,86.14
2023-01-29T21:23:23.209Z,86.23
2023-01-29T21:25:55.609Z,86.20
2023-01-29T21:28:25.372Z,86.29
2023-01-29T21:31:05.540Z,86.44
2023-01-29T21:33:35.803Z,86.75
2023-01-29T21:36:12.727Z,86.46
2023-01-29T21:38:42.788Z,86.45
2023-01-29T21:41:15.399Z,86.30
2023-01-29T21:43:42.674Z,85.63
2023-01-29T21:46:14.099Z,85.72
2023-01-29T21:48:43.983Z,85.10
2023-01-29T21:51:14.027Z,85.24
2023-01-29T21:53:43.829Z,84.81
2023-01-29T21:56:19.588Z,85.00
2023-01-29T21:58:50.141Z,84.89
2023-01-29T22:01:37.469Z,84.93
2023-01-29T22:04:10.076Z,84.43
2023-01-29T22:06:39.968Z,84.28
2023-01-29T22:09:10.275Z,84.35
2023-01-29T22:11:43.542Z,84.23
2023-01-29T22:14:13.381Z,84.38
2023-01-29T22:16:43.246Z,84.40
2023-01-29T22:19:13.421Z,84.71
2023-01-29T22:21:44.016Z,84.62
2023-01-29T22:24:13.947Z,84.96
2023-01-29T22:26:47.855Z,84.79
2023-01-29T22:29:20.032Z,84.71
2023-01-29T22:31:50.108Z,84.87
2023-01-29T22:34:19.862Z,84.80
2023-01-29T22:36:49.692Z,84.91
2023-01-29T22:39:19.607Z,84.88
2023-01-29T22:41:52.061Z,84.85
2023-01-29T22:44:21.845Z,85.01
2023-01-29T22:46:51.670Z,85.05
2023-01-29T22:49:23.307Z,84.76
2023-01-29T22:52:10.143Z,84.92
2023-01-29T22:54:41.935Z,84.60
2023-01-29T22:57:16.705Z,84.66
2023-01-29T22:59:46.650Z,84.91
2023-01-29T23:02:16.546Z,84.67
2023-01-29T23:04:46.958Z,84.75
2023-01-29T23:07:16.800Z,84.37
2023-01-29T23:09:46.770Z,84.49
2023-01-29T23:12:19.447Z,84.72
2023-01-29T23:14:49.728Z,85.24
2023-01-29T23:17:19.583Z,85.47
2023-01-29T23:19:49.616Z,84.81
2023-01-29T23:22:19.452Z,85.11
2023-01-29T23:24:49.601Z,85.16
2023-01-29T23:27:20.197Z,85.00
2023-01-29T23:29:51.857Z,84.86
2023-01-29T23:32:23.741Z,85.03
2023-01-29T23:34:53.629Z,85.21
2023-01-29T23:37:23.434Z,84.96
2023-01-29T23:39:54.055Z,85.12
2023-01-29T23:42:26.848Z,85.29
2023-01-29T23:44:56.769Z,84.77
2023-01-29T23:47:26.622Z,84.93
2023-01-29T23:49:57.076Z,84.74
2023-01-29T23:52:26.949Z,84.27
2023-01-29T23:54:56.773Z,84.35
2023-01-29T23:57:29.197Z,84.37
2023-01-29T23:59:59.101Z,84.74
